Terminal Aerodrome Forecast
Issued by NWS

Home | Current Version | Previous Version | Text Only | Print | Product List | Glossary On
Versions: 1 2 3 4 5 6 7 8 9 10 11 12 13 14 15 16 17 18 19 20 21 22 23 24 25
000
FTUS41 KPBZ 030200 AAA
TAFDUJ
TAF AMD
KDUJ 030233Z 0303/0324 27008KT P6SM BKN035
      TEMPO 0303/0304 BKN025
     FM030600 00000KT 2SM BR SCT007
     FM031400 27004KT P6SM SCT040=

USA.gov is the U.S. government's official web portal to all federal, state and local government web resources and services.